Los Angeles, California
Traffic Map
Current Weather Conditions
Los Angeles, California
Clear
Clear
28°
Feels Like: 28°
Wind Chill: 28° Ceiling: Unl
Heat Index: 28° Visibility: 10mi
Dew Point: 17° Wind: 3mph
Humidity: 52% Direction: 270° (W)
Pressure: 29.8in Gusts: 0mph
Raw Report DataKCQT 022047Z AUTO 27003KT 10SM CLR 28/17 A2980 RMK AO2 SLP088 T02780172 58012
Traffic Incident Summary
Active as of:
Severity:
Category:
InformationThere was an issue retrieving the traffic information for this location. Please try a different location or try again shortly.
Advertisements
Track Severe Weather on mobile